Terminal Aerodrome Forecast
Issued by NWS

Home | Current Version | Previous Version | Text Only | Print | Product List | Glossary On
Versions: 1 2 3 4 5 6 7 8 9 10 11 12 13 14 15 16 17
000
FTUS44 KTSA 272300
TAFRVS
TAF
KRVS 272320Z 2800/2824 VRB04KT P6SM BKN250
     FM280200 14004KT P6SM BKN070
     FM281400 17008KT P6SM SCT120
     FM282100 14006KT P6SM SCT250=

USA.gov is the U.S. government's official web portal to all federal, state and local government web resources and services.